createdAt,value
2019-05-26T00:00:23.979Z,98.20
2019-05-26T00:02:54.258Z,98.10
2019-05-26T00:05:24.512Z,98.00
2019-05-26T00:07:54.838Z,97.80
2019-05-26T00:10:25.039Z,97.90
2019-05-26T00:12:55.383Z,97.60
2019-05-26T00:15:27.434Z,97.70
2019-05-26T00:17:57.828Z,97.60
2019-05-26T00:20:28.134Z,97.80
2019-05-26T00:22:58.469Z,97.90
2019-05-26T00:25:28.769Z,98.10
2019-05-26T00:27:59.193Z,98.30
2019-05-26T00:30:29.492Z,98.50
2019-05-26T00:32:59.884Z,98.70
2019-05-26T00:35:30.121Z,99.20
2019-05-26T00:38:00.469Z,99.20
2019-05-26T00:40:30.789Z,99.20
2019-05-26T00:43:01.115Z,99.20
2019-05-26T00:45:31.342Z,99.40
2019-05-26T00:48:01.605Z,99.50
2019-05-26T00:50:31.907Z,99.60
2019-05-26T00:53:02.105Z,99.20
2019-05-26T00:55:32.341Z,99.20
2019-05-26T00:58:02.604Z,99.20
2019-05-26T01:00:43.740Z,99.30
2019-05-26T01:03:14.008Z,99.30
2019-05-26T01:05:44.314Z,99.40
2019-05-26T01:08:15.965Z,99.50
2019-05-26T01:10:46.611Z,99.70
2019-05-26T01:13:16.856Z,99.90
2019-05-26T01:15:47.087Z,99.90
2019-05-26T01:18:17.392Z,99.90
2019-05-26T01:20:47.697Z,99.90
2019-05-26T01:23:17.895Z,99.90
2019-05-26T01:25:48.187Z,99.90
2019-05-26T01:28:18.474Z,99.90
2019-05-26T01:30:48.872Z,99.90
2019-05-26T01:33:19.071Z,99.90
2019-05-26T01:35:50.243Z,99.90
2019-05-26T01:38:24.173Z,99.90
2019-05-26T01:40:54.430Z,99.90
2019-05-26T01:43:24.710Z,99.90
2019-05-26T01:45:54.937Z,99.90
2019-05-26T01:48:25.200Z,99.90
2019-05-26T01:50:55.512Z,99.90
2019-05-26T01:53:25.778Z,99.90
2019-05-26T01:55:56.020Z,99.90
2019-05-26T01:58:26.299Z,99.90
2019-05-26T02:00:56.545Z,99.90
2019-05-26T02:03:26.842Z,99.90
2019-05-26T02:05:57.757Z,99.90
2019-05-26T02:08:38.815Z,99.90
2019-05-26T02:10:59.869Z,99.90
2019-05-26T02:13:30.155Z,99.90
2019-05-26T02:16:00.769Z,99.90
2019-05-26T02:18:31.106Z,99.90
2019-05-26T02:21:01.381Z,99.90
2019-05-26T02:23:33.331Z,99.90
2019-05-26T02:26:03.629Z,99.90
2019-05-26T02:28:33.815Z,99.90
2019-05-26T02:31:04.131Z,99.90
2019-05-26T02:33:34.384Z,99.90
2019-05-26T02:36:04.617Z,99.90
2019-05-26T02:38:34.876Z,99.90
2019-05-26T02:41:05.317Z,99.90
2019-05-26T02:43:35.576Z,99.90
2019-05-26T02:46:05.811Z,99.90
2019-05-26T02:48:36.037Z,99.90
2019-05-26T02:51:06.358Z,99.90
2019-05-26T02:53:36.960Z,99.90
2019-05-26T02:56:07.714Z,99.90
2019-05-26T02:58:37.912Z,99.90
2019-05-26T03:01:08.346Z,99.90
2019-05-26T03:03:38.669Z,99.90
2019-05-26T03:06:10.171Z,99.90
2019-05-26T03:08:40.964Z,99.90
2019-05-26T03:11:12.316Z,99.90
2019-05-26T03:13:45.093Z,99.90
2019-05-26T03:16:18.026Z,99.90
2019-05-26T03:18:49.817Z,99.90
2019-05-26T03:21:21.369Z,99.90
2019-05-26T03:23:53.543Z,99.90
2019-05-26T03:26:26.673Z,99.90
2019-05-26T03:28:58.260Z,99.90
2019-05-26T03:31:28.509Z,99.90
2019-05-26T03:33:58.809Z,99.90
2019-05-26T03:36:29.078Z,99.90
2019-05-26T03:38:59.381Z,99.90
2019-05-26T03:41:30.099Z,99.90
2019-05-26T03:44:00.280Z,99.90
2019-05-26T03:46:30.485Z,99.90
2019-05-26T03:49:01.288Z,99.90
2019-05-26T03:51:31.492Z,99.90
2019-05-26T03:54:01.801Z,99.90
2019-05-26T03:56:32.074Z,99.90
2019-05-26T03:59:02.366Z,99.90
2019-05-26T04:01:32.638Z,99.90
2019-05-26T04:04:02.953Z,99.90
2019-05-26T04:06:33.687Z,99.90
2019-05-26T04:09:05.422Z,99.90
2019-05-26T04:11:35.695Z,99.90
2019-05-26T04:14:05.935Z,99.90
2019-05-26T04:16:37.197Z,99.90
2019-05-26T04:19:07.432Z,99.90
2019-05-26T04:21:37.665Z,99.90
2019-05-26T04:24:08.001Z,99.90
2019-05-26T04:26:38.277Z,99.90
2019-05-26T04:29:08.566Z,99.90
2019-05-26T04:31:38.783Z,99.90
2019-05-26T04:34:09.065Z,99.90
2019-05-26T04:36:39.337Z,99.90
2019-05-26T04:39:09.635Z,99.90
2019-05-26T04:41:39.921Z,99.90
2019-05-26T04:44:10.144Z,99.90
2019-05-26T04:46:40.417Z,99.90
2019-05-26T04:49:10.653Z,99.90
2019-05-26T04:51:40.937Z,99.90
2019-05-26T04:54:11.168Z,99.90
2019-05-26T04:56:43.695Z,99.90
2019-05-26T04:59:13.991Z,99.90
2019-05-26T05:01:44.217Z,99.90
2019-05-26T05:04:14.519Z,99.90
2019-05-26T05:06:44.823Z,99.90
2019-05-26T05:09:15.125Z,99.90
2019-05-26T05:11:45.329Z,99.90
2019-05-26T05:14:15.631Z,99.90
2019-05-26T05:16:45.958Z,99.90
2019-05-26T05:19:16.164Z,99.90
2019-05-26T05:21:48.135Z,99.90
2019-05-26T05:24:18.776Z,99.90
2019-05-26T05:26:51.864Z,99.90
2019-05-26T05:29:22.197Z,99.90
2019-05-26T05:31:52.736Z,99.90
2019-05-26T05:34:23.020Z,99.90
2019-05-26T05:36:53.221Z,99.70
2019-05-26T05:39:23.548Z,99.30
2019-05-26T05:41:53.800Z,99.60
2019-05-26T05:44:24.028Z,99.50
2019-05-26T05:46:54.285Z,99.40
2019-05-26T05:49:24.526Z,99.20
2019-05-26T05:51:55.409Z,99.00
2019-05-26T05:54:25.596Z,98.10
2019-05-26T05:56:55.963Z,97.30
2019-05-26T05:59:26.339Z,97.80
2019-05-26T06:01:56.546Z,95.80
2019-05-26T06:04:26.850Z,96.30
2019-05-26T06:06:57.411Z,96.20
2019-05-26T06:09:27.700Z,96.20
2019-05-26T06:11:57.975Z,96.70
2019-05-26T06:14:28.278Z,96.20
2019-05-26T06:16:58.587Z,96.30
2019-05-26T06:19:28.875Z,95.70
2019-05-26T06:21:59.382Z,94.80
2019-05-26T06:24:29.668Z,95.10
2019-05-26T06:27:00.236Z,95.20
2019-05-26T06:29:30.531Z,95.50
2019-05-26T06:32:00.987Z,95.00
2019-05-26T06:34:31.529Z,94.70
2019-05-26T06:37:01.778Z,94.70
2019-05-26T06:39:33.197Z,94.90
2019-05-26T06:42:04.979Z,94.80
2019-05-26T06:44:52.038Z,94.00
2019-05-26T06:47:07.000Z,93.40
2019-05-26T06:49:37.603Z,93.70
2019-05-26T06:52:07.968Z,93.70
2019-05-26T06:54:39.960Z,94.30
2019-05-26T06:57:10.195Z,94.10
2019-05-26T06:59:40.464Z,93.80
2019-05-26T07:02:10.673Z,93.50
2019-05-26T07:04:40.976Z,93.70
2019-05-26T07:07:11.237Z,93.60
2019-05-26T07:09:41.551Z,94.20
2019-05-26T07:12:11.800Z,93.50
2019-05-26T07:14:48.277Z,93.20
2019-05-26T07:17:20.671Z,93.40
2019-05-26T07:19:54.903Z,93.50
2019-05-26T07:22:25.358Z,93.40
2019-05-26T07:24:58.478Z,93.80
2019-05-26T07:27:28.936Z,93.70
2019-05-26T07:29:59.215Z,93.60
2019-05-26T07:32:29.446Z,93.80
2019-05-26T07:34:59.828Z,93.60
2019-05-26T07:37:30.128Z,93.20
2019-05-26T07:40:00.852Z,93.40
2019-05-26T07:42:31.122Z,93.40
2019-05-26T07:45:01.476Z,92.60
2019-05-26T07:47:32.940Z,92.40
2019-05-26T07:50:04.705Z,92.10
2019-05-26T07:52:35.107Z,92.20
2019-05-26T07:55:06.037Z,92.20
2019-05-26T07:57:37.501Z,91.80
2019-05-26T08:00:08.324Z,92.20
2019-05-26T08:02:38.582Z,92.60
2019-05-26T08:05:10.064Z,92.40
2019-05-26T08:07:40.279Z,92.00
2019-05-26T08:10:12.113Z,92.10
2019-05-26T08:12:42.376Z,92.00
2019-05-26T08:15:14.716Z,91.60
2019-05-26T08:17:44.942Z,91.70
2019-05-26T08:20:15.624Z,92.00
2019-05-26T08:22:45.847Z,91.80
2019-05-26T08:25:16.478Z,91.40
2019-05-26T08:27:46.776Z,90.80
2019-05-26T08:30:17.310Z,90.80
2019-05-26T08:32:47.500Z,90.90
2019-05-26T08:35:17.800Z,91.00
2019-05-26T08:37:48.068Z,90.60
2019-05-26T08:40:18.338Z,91.00
2019-05-26T08:42:51.323Z,90.00
2019-05-26T08:45:23.371Z,90.30
2019-05-26T08:47:53.654Z,90.50
2019-05-26T08:50:23.948Z,90.40
2019-05-26T08:52:54.154Z,90.10
2019-05-26T08:55:24.453Z,90.20
2019-05-26T08:57:54.807Z,88.20
2019-05-26T09:00:25.407Z,88.00
2019-05-26T09:02:55.621Z,88.30
2019-05-26T09:05:25.927Z,89.80
2019-05-26T09:07:56.309Z,87.60
2019-05-26T09:10:26.619Z,88.00
2019-05-26T09:13:01.226Z,89.10
2019-05-26T09:15:28.852Z,89.20
2019-05-26T09:17:59.136Z,88.00
2019-05-26T09:20:29.375Z,87.30
2019-05-26T09:23:00.081Z,88.40
2019-05-26T09:25:30.247Z,88.80
2019-05-26T09:28:00.551Z,87.30
2019-05-26T09:30:31.136Z,87.60
2019-05-26T09:33:01.430Z,88.70
2019-05-26T09:35:31.720Z,88.80
2019-05-26T09:38:01.996Z,88.40
2019-05-26T09:40:33.069Z,87.60
2019-05-26T09:43:15.031Z,87.10
2019-05-26T09:45:35.292Z,87.10
2019-05-26T09:48:05.517Z,87.80
2019-05-26T09:50:35.865Z,86.80
2019-05-26T09:53:06.126Z,86.30
2019-05-26T09:55:36.399Z,86.80
2019-05-26T09:58:06.666Z,86.10
2019-05-26T10:00:37.244Z,86.70
2019-05-26T10:03:11.063Z,86.70
2019-05-26T10:05:42.240Z,85.00
2019-05-26T10:08:12.701Z,85.40
2019-05-26T10:10:43.057Z,86.60
2019-05-26T10:13:29.103Z,86.00
2019-05-26T10:15:48.000Z,85.50
2019-05-26T10:18:18.357Z,84.80
2019-05-26T10:20:48.612Z,86.00
2019-05-26T10:23:18.872Z,81.10
2019-05-26T10:25:49.223Z,82.80
2019-05-26T10:28:19.444Z,85.30
2019-05-26T10:30:49.802Z,82.10
2019-05-26T10:33:20.094Z,83.00
2019-05-26T10:35:50.549Z,82.10
2019-05-26T10:38:20.904Z,79.80
2019-05-26T10:40:51.228Z,81.00
2019-05-26T10:43:21.524Z,80.70
2019-05-26T10:45:51.905Z,80.40
2019-05-26T10:48:22.196Z,82.40
2019-05-26T10:50:52.630Z,81.00
2019-05-26T10:53:22.927Z,82.20
2019-05-26T10:55:53.710Z,81.40
2019-05-26T10:58:23.895Z,81.30
2019-05-26T11:00:54.311Z,77.60
2019-05-26T11:03:24.618Z,78.40
2019-05-26T11:05:55.046Z,79.10
2019-05-26T11:08:25.327Z,80.70
2019-05-26T11:10:55.704Z,79.90
2019-05-26T11:13:27.063Z,80.60
2019-05-26T11:16:04.876Z,80.70
2019-05-26T11:18:36.276Z,79.40
2019-05-26T11:21:06.583Z,75.50
2019-05-26T11:23:36.811Z,76.90
2019-05-26T11:26:07.582Z,76.50
2019-05-26T11:28:37.766Z,78.80
2019-05-26T11:31:07.968Z,79.80
2019-05-26T11:33:38.265Z,76.90
2019-05-26T11:36:08.579Z,77.70
2019-05-26T11:38:38.809Z,78.80
2019-05-26T11:41:09.066Z,79.90
2019-05-26T11:43:39.711Z,78.80
2019-05-26T11:46:10.132Z,78.20
2019-05-26T11:48:40.476Z,77.10
2019-05-26T11:51:11.773Z,74.10
2019-05-26T11:53:42.282Z,74.40
2019-05-26T11:56:12.734Z,76.10
2019-05-26T11:58:43.033Z,74.50
2019-05-26T12:01:13.300Z,76.30
2019-05-26T12:03:43.660Z,74.80
2019-05-26T12:06:13.952Z,75.50
2019-05-26T12:08:44.322Z,76.90
2019-05-26T12:11:14.757Z,75.70
2019-05-26T12:13:45.074Z,74.90
2019-05-26T12:16:15.355Z,76.30
2019-05-26T12:18:45.645Z,76.50
2019-05-26T12:21:15.942Z,76.50
2019-05-26T12:23:46.291Z,78.20
2019-05-26T12:26:16.512Z,77.90
2019-05-26T12:28:46.868Z,78.60
2019-05-26T12:31:17.173Z,78.40
2019-05-26T12:33:47.996Z,77.30
2019-05-26T12:36:18.159Z,78.60
2019-05-26T12:38:51.618Z,77.70
2019-05-26T12:41:22.655Z,77.00
2019-05-26T12:43:52.997Z,77.70
2019-05-26T12:46:23.765Z,76.30
2019-05-26T12:48:54.199Z,76.30
2019-05-26T12:51:24.538Z,72.30
2019-05-26T12:53:54.840Z,72.80
2019-05-26T12:56:25.112Z,73.20
2019-05-26T12:58:55.677Z,71.40
2019-05-26T13:01:25.993Z,70.20
2019-05-26T13:03:56.508Z,68.80
2019-05-26T13:06:30.093Z,68.40
2019-05-26T13:09:00.540Z,71.50
2019-05-26T13:11:30.728Z,69.80
2019-05-26T13:14:01.614Z,70.60
2019-05-26T13:16:35.634Z,72.00
2019-05-26T13:19:03.716Z,70.80
2019-05-26T13:21:33.993Z,71.40
2019-05-26T13:24:04.775Z,72.30
2019-05-26T13:26:35.107Z,71.80
2019-05-26T13:29:05.331Z,69.40
2019-05-26T13:31:35.664Z,70.10
2019-05-26T13:34:05.897Z,68.20
2019-05-26T13:36:36.567Z,70.60
2019-05-26T13:39:08.675Z,69.70
2019-05-26T13:41:39.489Z,70.20
2019-05-26T13:44:10.875Z,68.00
2019-05-26T13:46:42.135Z,67.40
2019-05-26T13:49:12.816Z,68.20
2019-05-26T13:51:43.019Z,69.20
2019-05-26T13:54:13.318Z,68.20
2019-05-26T13:56:43.579Z,65.90
2019-05-26T13:59:13.877Z,65.00
2019-05-26T14:01:44.130Z,66.50
2019-05-26T14:04:14.831Z,65.10
2019-05-26T14:06:45.077Z,63.00
2019-05-26T14:09:15.285Z,63.10
2019-05-26T14:11:45.536Z,63.10
2019-05-26T14:14:16.245Z,65.50
2019-05-26T14:16:49.504Z,63.50
2019-05-26T14:19:21.160Z,63.30
2019-05-26T14:21:51.782Z,64.70
2019-05-26T14:24:21.978Z,65.70
2019-05-26T14:26:52.248Z,61.80
2019-05-26T14:29:22.680Z,63.00
2019-05-26T14:31:53.043Z,65.20
2019-05-26T14:34:23.268Z,62.10
2019-05-26T14:36:53.578Z,62.60
2019-05-26T14:39:23.830Z,59.30
2019-05-26T14:41:54.133Z,60.90
2019-05-26T14:44:24.384Z,60.20
2019-05-26T14:46:54.604Z,61.00
2019-05-26T14:49:24.814Z,58.90
2019-05-26T14:51:55.114Z,59.10
2019-05-26T14:54:25.372Z,57.40
2019-05-26T14:56:55.600Z,58.30
2019-05-26T14:59:25.874Z,59.50
2019-05-26T15:01:56.065Z,59.40
2019-05-26T15:04:26.340Z,59.40
2019-05-26T15:06:56.572Z,57.50
2019-05-26T15:09:26.873Z,56.50
2019-05-26T15:11:57.209Z,59.00
2019-05-26T15:14:27.398Z,56.80
2019-05-26T15:16:57.624Z,58.10
2019-05-26T15:19:27.873Z,58.30
2019-05-26T15:21:58.743Z,60.00
2019-05-26T15:24:28.970Z,58.20
2019-05-26T15:26:59.270Z,59.20
2019-05-26T15:29:29.531Z,57.20
2019-05-26T15:32:02.691Z,57.60
2019-05-26T15:34:31.696Z,57.50
2019-05-26T15:37:01.921Z,55.20
2019-05-26T15:39:33.280Z,56.40
2019-05-26T15:42:03.589Z,57.10
2019-05-26T15:44:33.843Z,56.30
2019-05-26T15:47:04.154Z,55.90
2019-05-26T15:49:34.719Z,55.50
2019-05-26T15:52:04.958Z,55.50
2019-05-26T15:54:35.152Z,55.60
2019-05-26T15:57:05.536Z,54.60
2019-05-26T15:59:35.788Z,55.10
2019-05-26T16:02:06.019Z,54.90
2019-05-26T16:04:36.280Z,55.40
2019-05-26T16:07:06.498Z,55.40
2019-05-26T16:09:37.848Z,53.50
2019-05-26T16:12:08.964Z,52.60
2019-05-26T16:14:45.256Z,52.90
2019-05-26T16:17:15.668Z,53.60
2019-05-26T16:19:45.923Z,53.70
2019-05-26T16:22:16.146Z,53.50
2019-05-26T16:24:46.671Z,53.90
2019-05-26T16:27:19.386Z,53.30
2019-05-26T16:29:49.239Z,51.90
2019-05-26T16:32:19.500Z,52.30
2019-05-26T16:34:49.736Z,51.90
2019-05-26T16:37:20.059Z,51.20
2019-05-26T16:39:50.345Z,51.10
2019-05-26T16:42:20.568Z,52.10
2019-05-26T16:44:50.945Z,52.50
2019-05-26T16:47:21.235Z,52.00
2019-05-26T16:49:51.495Z,49.50
2019-05-26T16:52:22.120Z,49.00
2019-05-26T16:54:52.307Z,49.10
2019-05-26T16:57:22.655Z,49.50
2019-05-26T16:59:52.916Z,49.70
2019-05-26T17:02:23.415Z,50.60
2019-05-26T17:04:53.838Z,49.80
2019-05-26T17:07:24.094Z,49.00
2019-05-26T17:09:54.490Z,48.50
2019-05-26T17:12:24.901Z,48.90
2019-05-26T17:14:55.216Z,48.40
2019-05-26T17:17:25.525Z,48.50
2019-05-26T17:19:55.809Z,48.40
2019-05-26T17:22:26.064Z,47.30
2019-05-26T17:24:59.848Z,45.90
2019-05-26T17:27:28.472Z,45.80
2019-05-26T17:30:05.893Z,45.00
2019-05-26T17:32:40.230Z,46.00
2019-05-26T17:35:10.940Z,45.90
2019-05-26T17:37:43.573Z,46.00
2019-05-26T17:40:23.134Z,46.10
2019-05-26T17:42:56.094Z,46.00
2019-05-26T17:45:48.807Z,46.50
2019-05-26T17:48:22.087Z,46.90
2019-05-26T17:50:52.365Z,47.40
2019-05-26T17:53:27.253Z,46.80
2019-05-26T17:55:57.616Z,48.40
2019-05-26T17:58:27.978Z,49.10
2019-05-26T18:00:58.337Z,48.80
2019-05-26T18:03:28.618Z,50.60
2019-05-26T18:05:58.933Z,51.80
2019-05-26T18:08:29.212Z,53.10
2019-05-26T18:10:59.660Z,54.20
2019-05-26T18:13:29.843Z,55.40
2019-05-26T18:16:01.921Z,55.50
2019-05-26T18:18:32.104Z,56.00
2019-05-26T18:21:02.674Z,56.60
2019-05-26T18:23:32.858Z,56.90
2019-05-26T18:26:04.747Z,58.20
2019-05-26T18:28:35.033Z,59.30
2019-05-26T18:31:05.375Z,60.50
2019-05-26T18:33:35.603Z,60.70
2019-05-26T18:36:05.877Z,61.50
2019-05-26T18:38:36.404Z,62.20
2019-05-26T18:41:13.497Z,62.00
2019-05-26T18:43:44.001Z,63.20
2019-05-26T18:46:14.344Z,63.60
2019-05-26T18:48:44.794Z,64.60
2019-05-26T18:51:15.244Z,66.00
2019-05-26T18:53:45.511Z,67.40
2019-05-26T18:56:16.167Z,68.70
2019-05-26T18:58:46.448Z,69.60
2019-05-26T19:01:16.742Z,70.70
2019-05-26T19:03:47.016Z,72.20
2019-05-26T19:06:17.366Z,73.60
2019-05-26T19:08:47.619Z,75.50
2019-05-26T19:11:17.956Z,76.70
2019-05-26T19:13:48.207Z,77.30
2019-05-26T19:16:20.158Z,77.70
2019-05-26T19:18:50.351Z,79.20
2019-05-26T19:21:20.662Z,79.00
2019-05-26T19:23:50.934Z,79.40
2019-05-26T19:26:21.261Z,80.50
2019-05-26T19:28:51.460Z,80.80
2019-05-26T19:31:21.821Z,81.40
2019-05-26T19:33:52.103Z,83.20
2019-05-26T19:36:22.445Z,84.40
2019-05-26T19:38:53.972Z,84.90
2019-05-26T19:41:24.297Z,85.40
2019-05-26T19:43:54.488Z,86.70
2019-05-26T19:46:24.773Z,86.80
2019-05-26T19:48:55.027Z,87.30
2019-05-26T19:51:27.835Z,88.00
2019-05-26T19:53:58.110Z,88.10
2019-05-26T19:56:28.454Z,89.30
2019-05-26T19:58:58.741Z,89.80
2019-05-26T20:01:28.995Z,90.00
2019-05-26T20:03:59.250Z,90.40
2019-05-26T20:06:29.624Z,90.30
2019-05-26T20:08:59.926Z,90.50
2019-05-26T20:11:30.289Z,90.40
2019-05-26T20:14:01.106Z,90.50
2019-05-26T20:16:32.982Z,90.60
2019-05-26T20:19:03.256Z,90.90
2019-05-26T20:21:33.560Z,91.10
2019-05-26T20:24:03.839Z,91.40
2019-05-26T20:26:34.693Z,91.70
2019-05-26T20:29:04.917Z,91.60
2019-05-26T20:31:35.133Z,91.80
2019-05-26T20:34:05.412Z,91.90
2019-05-26T20:36:35.709Z,92.20
2019-05-26T20:39:08.526Z,92.30
2019-05-26T20:41:38.823Z,92.40
2019-05-26T20:44:09.021Z,92.60
2019-05-26T20:46:39.332Z,92.70
2019-05-26T20:49:09.733Z,92.90
2019-05-26T20:51:40.211Z,93.00
2019-05-26T20:54:10.462Z,93.00
2019-05-26T20:56:40.778Z,93.10
2019-05-26T20:59:10.985Z,93.30
2019-05-26T21:01:41.292Z,93.60
2019-05-26T21:04:11.555Z,93.70
2019-05-26T21:06:41.913Z,93.90
2019-05-26T21:09:12.171Z,94.00
2019-05-26T21:11:42.404Z,94.30
2019-05-26T21:14:12.667Z,94.50
2019-05-26T21:16:44.050Z,94.30
2019-05-26T21:19:14.316Z,94.60
2019-05-26T21:21:44.600Z,94.60
2019-05-26T21:24:14.863Z,95.10
2019-05-26T21:26:45.164Z,95.20
2019-05-26T21:29:15.448Z,95.50
2019-05-26T21:31:45.783Z,95.50
2019-05-26T21:34:16.139Z,95.40
2019-05-26T21:36:46.383Z,95.60
2019-05-26T21:39:16.639Z,95.70
2019-05-26T21:41:46.923Z,96.20
2019-05-26T21:44:17.186Z,96.50
2019-05-26T21:46:47.510Z,96.70
2019-05-26T21:49:17.763Z,96.90
2019-05-26T21:51:48.074Z,96.70
2019-05-26T21:54:18.351Z,97.00
2019-05-26T21:56:48.620Z,96.80
2019-05-26T21:59:18.850Z,96.80
2019-05-26T22:01:49.109Z,97.20
2019-05-26T22:04:19.797Z,97.20
2019-05-26T22:06:50.083Z,97.30
2019-05-26T22:09:20.350Z,97.30
2019-05-26T22:11:50.628Z,97.40
2019-05-26T22:14:20.831Z,97.50
2019-05-26T22:16:51.127Z,97.60
2019-05-26T22:19:21.407Z,97.60
2019-05-26T22:21:51.717Z,97.70
2019-05-26T22:24:22.257Z,97.80
2019-05-26T22:26:52.531Z,97.90
2019-05-26T22:29:22.744Z,98.00
2019-05-26T22:31:52.984Z,97.90
2019-05-26T22:34:23.186Z,98.10
2019-05-26T22:36:53.481Z,98.10
2019-05-26T22:39:23.742Z,98.30
2019-05-26T22:41:54.048Z,98.50
2019-05-26T22:44:24.237Z,98.60
2019-05-26T22:46:54.519Z,98.60
2019-05-26T22:49:24.751Z,98.70
2019-05-26T22:51:55.126Z,98.80
2019-05-26T22:54:25.389Z,98.80
2019-05-26T22:56:55.635Z,98.90
2019-05-26T22:59:25.872Z,99.00
2019-05-26T23:01:56.167Z,99.00
2019-05-26T23:04:26.462Z,99.00
2019-05-26T23:06:56.714Z,98.90
2019-05-26T23:09:27.013Z,99.10
2019-05-26T23:11:57.210Z,99.00
2019-05-26T23:14:27.530Z,99.00
2019-05-26T23:16:59.428Z,99.10
2019-05-26T23:19:29.734Z,99.20
2019-05-26T23:22:00.082Z,99.20
2019-05-26T23:24:30.456Z,99.30
2019-05-26T23:27:00.728Z,99.20
2019-05-26T23:29:31.032Z,99.30
2019-05-26T23:32:01.300Z,99.50
2019-05-26T23:34:31.550Z,99.50
2019-05-26T23:37:01.864Z,99.50
2019-05-26T23:39:32.161Z,99.40
2019-05-26T23:42:02.420Z,99.40
2019-05-26T23:44:32.672Z,99.50
2019-05-26T23:47:02.949Z,99.60
2019-05-26T23:49:33.836Z,99.70
2019-05-26T23:52:04.060Z,99.90
2019-05-26T23:54:34.289Z,99.90
2019-05-26T23:57:04.502Z,99.90
2019-05-26T23:59:34.787Z,99.80
